San Diego, California
Current Conditions -  °F | °C
As of 10:51 PM on Thursday 30 Oct 2014 (Local Time) from KSAN Reporting Station
Broken Clouds Broken Clouds  
Wind Chill: 68°   Ceiling: 21000
Heat Index: 68°   Visibility: 10mi
Dew Point: 61°   Wind: 0mph
Humidity: 78%   Direction: NA
Pressure: 29.99"   Gusts: NA
Location:  32.72°N, 117.16°W
Report Text: KSAN 310551Z 00000KT 10SM FEW017 BKN210 20/16 A2999 RMK AO2 SLP155 T02000161 10222 20200 51011
Loading
Personal Weather Stations






























Interactive Weather Map
Tropical Storm Tracking
New forecast layout! Learn more

10-Day Weather Forecast

Advertisements
Track Severe Weather on mobile